CYDP/YDP METAR and TAF weather

Enter ICAO airport designator
Station Type Date Time Source
CYDP METAR 2020/03/28 20:05 UTC NOAA

CYDP 282005Z 30027KT 3SM -SN DRSN BKN024 OVC080 M06/M08 A2980 RMK SC5AS3 SLP095


Station Type Date Time Source
CYDP Decoded METAR 2020/03/28 20:05 UTC NOAA

Nain, Nfld, Canada (CYDP) 56-33N 061-41W 7M
Mar 28, 2020 - 04:05 PM EDT / 2020.03.28 2005 UTC
Wind: from the WNW (300 degrees) at 31 MPH (27 KT):0
Visibility: 3 mile(s):0
Sky conditions: overcast
Weather: light snow; low drifting snow
Temperature: 21 F (-6 C)
Windchill: 3 F (-16 C):1
Dew Point: 17 F (-8 C)
Relative Humidity: 85%
Pressure (altimeter): 29.8 in. Hg (1009 hPa)
ob: CYDP 282005Z 30027KT 3SM -SN DRSN BKN024 OVC080 M06/M08 A2980 RMK SC5AS3 SLP095
cycle: 20

Station Type Date Time Source
CYDP TAF 2020/03/28 20:00 UTC NOAA

TAF CYDP 281938Z 2820/2823 30020G30KT 1/2SM SN BLSN OVC020
TEMPO 2820/2821 5SM -SN OVC025
FM282100 31018G28KT P6SM -SN OVC025
TEMPO 2821/2823 5SM -SN BLSN OVC015
BECMG 2821/2823 31015G25KT
RMK NXT FCST WILL BE ISSUED AT 290945Z

Example: see airport list